createdAt,value
2022-12-31T00:02:13.245Z,19.3
2022-12-31T00:07:15.316Z,19.3
2022-12-31T00:12:17.591Z,19.3
2022-12-31T00:17:19.863Z,19.3
2022-12-31T00:22:22.018Z,19.2
2022-12-31T00:27:24.127Z,19.2
2022-12-31T00:32:26.274Z,19.2
2022-12-31T00:37:28.446Z,19.2
2022-12-31T00:42:30.558Z,19.1
2022-12-31T00:47:32.704Z,19.1
2022-12-31T00:52:34.898Z,19.1
2022-12-31T00:57:37.014Z,19.1
2022-12-31T01:02:39.250Z,19
2022-12-31T01:07:41.341Z,19
2022-12-31T01:12:43.441Z,19
2022-12-31T01:17:45.579Z,19
2022-12-31T01:22:47.888Z,19
2022-12-31T01:27:50.031Z,19
2022-12-31T01:32:52.309Z,19
2022-12-31T01:37:54.487Z,19
2022-12-31T01:42:56.726Z,19
2022-12-31T01:47:58.871Z,19
2022-12-31T01:53:01.035Z,19
2022-12-31T01:58:03.152Z,19
2022-12-31T02:03:05.341Z,19
2022-12-31T02:08:07.559Z,19
2022-12-31T02:13:09.597Z,18.9
2022-12-31T02:18:11.732Z,18.9
2022-12-31T02:23:13.896Z,18.9
2022-12-31T02:28:16.010Z,18.9
2022-12-31T02:33:18.142Z,18.9
2022-12-31T02:38:20.374Z,18.8
2022-12-31T02:43:22.506Z,18.8
2022-12-31T02:48:24.759Z,18.7
2022-12-31T02:53:26.960Z,18.7
2022-12-31T02:58:29.070Z,18.7
2022-12-31T03:03:31.216Z,18.7
2022-12-31T03:08:33.370Z,18.7
2022-12-31T03:13:35.524Z,18.7
2022-12-31T03:18:37.628Z,18.7
2022-12-31T03:23:39.787Z,18.6
2022-12-31T03:28:41.924Z,18.6
2022-12-31T03:33:44.043Z,18.6
2022-12-31T03:38:49.801Z,18.6
2022-12-31T03:43:48.318Z,18.6
2022-12-31T03:48:50.463Z,18.6
2022-12-31T03:53:52.624Z,18.6
2022-12-31T03:58:54.748Z,18.6
2022-12-31T04:03:56.974Z,18.6
2022-12-31T04:08:59.295Z,18.6
2022-12-31T04:14:01.419Z,18.6
2022-12-31T04:19:03.588Z,18.6
2022-12-31T04:24:05.848Z,18.6
2022-12-31T04:29:08.111Z,18.6
2022-12-31T04:34:10.276Z,18.6
2022-12-31T04:39:12.464Z,18.5
2022-12-31T04:44:14.656Z,18.5
2022-12-31T04:49:16.902Z,18.5
2022-12-31T04:54:19.143Z,18.5
2022-12-31T04:59:21.272Z,18.5
2022-12-31T05:04:23.533Z,18.5
2022-12-31T05:09:25.711Z,18.5
2022-12-31T05:14:27.841Z,18.5
2022-12-31T05:19:29.975Z,18.5
2022-12-31T05:24:32.226Z,18.5
2022-12-31T05:29:34.359Z,18.5
2022-12-31T05:34:36.499Z,18.5
2022-12-31T05:39:38.820Z,18.6
2022-12-31T05:44:40.957Z,18.6
2022-12-31T05:49:43.228Z,18.7
2022-12-31T05:54:45.523Z,18.7
2022-12-31T05:59:47.782Z,18.8
2022-12-31T06:04:49.939Z,18.9
2022-12-31T06:09:52.201Z,19
2022-12-31T06:14:54.423Z,19.1
2022-12-31T06:19:56.668Z,19.3
2022-12-31T06:24:58.975Z,19.4
2022-12-31T06:30:01.105Z,19.4
2022-12-31T06:35:03.331Z,19.5
2022-12-31T06:40:05.609Z,19.6
2022-12-31T06:45:07.744Z,19.6
2022-12-31T06:50:09.985Z,19.7
2022-12-31T06:55:12.334Z,19.8
2022-12-31T07:00:14.548Z,19.8
2022-12-31T07:05:16.776Z,19.8
2022-12-31T07:10:21.579Z,19.8
2022-12-31T07:15:21.303Z,19.8
2022-12-31T07:20:23.464Z,19.8
2022-12-31T07:25:25.640Z,19.9
2022-12-31T07:30:27.842Z,19.9
2022-12-31T07:35:34.913Z,19.9
2022-12-31T07:40:32.340Z,19.9
2022-12-31T07:45:34.431Z,19.9
2022-12-31T07:50:36.693Z,19.8
2022-12-31T07:55:38.953Z,19.8
2022-12-31T08:00:41.102Z,19.8
2022-12-31T08:05:43.222Z,19.8
2022-12-31T08:10:45.534Z,19.8
2022-12-31T08:15:47.787Z,19.8
2022-12-31T08:20:50.025Z,19.8
2022-12-31T08:25:52.319Z,19.8
2022-12-31T08:30:54.572Z,19.8
2022-12-31T08:35:56.726Z,19.8
2022-12-31T08:40:59.038Z,19.7
2022-12-31T08:46:01.329Z,19.7
2022-12-31T08:51:03.505Z,19.7
2022-12-31T08:56:05.795Z,19.7
2022-12-31T09:01:08.156Z,19.7
2022-12-31T09:06:10.199Z,19.7
2022-12-31T09:11:15.296Z,19.7
2022-12-31T09:16:14.881Z,19.7
2022-12-31T09:21:16.984Z,19.7
2022-12-31T09:26:19.165Z,19.7
2022-12-31T09:31:21.352Z,19.7
2022-12-31T09:36:26.420Z,19.7
2022-12-31T09:41:26.173Z,19.6
2022-12-31T09:46:28.298Z,19.6
2022-12-31T09:51:30.447Z,19.6
2022-12-31T09:56:32.603Z,19.7
2022-12-31T10:01:34.896Z,19.7
2022-12-31T10:06:36.963Z,19.7
2022-12-31T10:11:39.173Z,19.7
2022-12-31T10:16:41.345Z,19.7
2022-12-31T10:21:43.445Z,19.7
2022-12-31T10:26:49.895Z,19.7
2022-12-31T10:31:47.721Z,19.6
2022-12-31T10:36:49.954Z,19.6
2022-12-31T10:41:52.277Z,19.6
2022-12-31T10:46:54.253Z,19.6
2022-12-31T10:51:56.390Z,19.5
2022-12-31T10:56:58.564Z,19.5
2022-12-31T11:02:00.782Z,19.5
2022-12-31T11:07:02.960Z,19.5
2022-12-31T11:12:05.156Z,19.4
2022-12-31T11:17:07.356Z,19.4
2022-12-31T11:22:09.589Z,19.4
2022-12-31T11:27:11.868Z,19.4
2022-12-31T11:32:13.986Z,19.4
2022-12-31T11:37:16.222Z,19.4
2022-12-31T11:42:18.516Z,19.4
2022-12-31T11:47:20.688Z,19.4
2022-12-31T11:52:22.939Z,19.4
2022-12-31T11:57:25.263Z,19.3
2022-12-31T12:02:27.463Z,19.3
2022-12-31T12:07:29.650Z,19.3
2022-12-31T12:12:31.904Z,19.2
2022-12-31T12:17:34.141Z,19.2
2022-12-31T12:22:36.603Z,19.2
2022-12-31T12:27:38.808Z,19.2
2022-12-31T12:32:40.906Z,19.2
2022-12-31T12:37:43.061Z,19.2
2022-12-31T12:42:45.497Z,19.2
2022-12-31T12:47:47.632Z,19.2
2022-12-31T12:52:50.505Z,19.2
2022-12-31T12:57:52.117Z,19.2
2022-12-31T13:02:54.403Z,19.2
2022-12-31T13:07:56.533Z,19.2
2022-12-31T13:13:23.114Z,19.3
2022-12-31T13:18:02.024Z,19.3
2022-12-31T13:23:02.970Z,19.3
2022-12-31T13:28:05.131Z,19.3
2022-12-31T13:33:07.248Z,19.3
2022-12-31T13:38:09.382Z,19.3
2022-12-31T13:43:11.587Z,19.3
2022-12-31T13:48:13.705Z,19.2
2022-12-31T13:53:15.864Z,19.2
2022-12-31T13:58:18.140Z,19.2
2022-12-31T14:03:20.500Z,19.2
2022-12-31T14:08:22.779Z,19.2
2022-12-31T14:13:27.853Z,19.2
2022-12-31T14:18:27.327Z,19.2
2022-12-31T14:23:29.537Z,19.3
2022-12-31T14:28:31.711Z,19.4
2022-12-31T14:33:33.812Z,19.4
2022-12-31T14:38:36.187Z,19.6
2022-12-31T14:43:38.379Z,19.7
2022-12-31T14:48:40.510Z,19.8
2022-12-31T14:53:42.729Z,19.9
2022-12-31T14:58:45.071Z,19.9
2022-12-31T15:03:47.204Z,19.9
2022-12-31T15:08:49.356Z,19.9
2022-12-31T15:13:51.626Z,19.9
2022-12-31T15:18:53.752Z,19.9
2022-12-31T15:23:56.093Z,19.9
2022-12-31T15:28:58.477Z,20
2022-12-31T15:34:00.595Z,20
2022-12-31T15:39:02.916Z,20.1
2022-12-31T15:44:05.073Z,20.1
2022-12-31T15:49:11.831Z,20.1
2022-12-31T15:54:09.510Z,20.1
2022-12-31T15:59:11.644Z,20
2022-12-31T16:04:13.853Z,20
2022-12-31T16:09:16.015Z,20
2022-12-31T16:14:18.188Z,20
2022-12-31T16:19:20.500Z,20
2022-12-31T16:24:22.725Z,20
2022-12-31T16:29:24.897Z,19.9
2022-12-31T16:34:27.020Z,19.9
2022-12-31T16:39:29.340Z,19.9
2022-12-31T16:44:31.610Z,19.9
2022-12-31T16:49:33.795Z,19.9
2022-12-31T16:54:36.130Z,19.9
2022-12-31T16:59:38.466Z,19.8
2022-12-31T17:04:46.007Z,19.8
2022-12-31T17:09:43.006Z,19.8
2022-12-31T17:14:45.229Z,19.8
2022-12-31T17:19:47.497Z,19.7
2022-12-31T17:24:49.780Z,19.7
2022-12-31T17:29:51.955Z,19.6
2022-12-31T17:34:54.254Z,19.6
2022-12-31T17:40:06.437Z,19.6
2022-12-31T17:44:58.670Z,19.5
2022-12-31T17:50:01.095Z,19.5
2022-12-31T17:55:03.320Z,19.5
2022-12-31T18:00:05.495Z,19.5
2022-12-31T18:05:07.694Z,19.4
2022-12-31T18:10:09.964Z,19.4
2022-12-31T18:15:12.127Z,19.4
2022-12-31T18:20:14.402Z,19.4
2022-12-31T18:25:16.749Z,19.4
2022-12-31T18:30:19.002Z,19.3
2022-12-31T18:40:23.353Z,19.3
2022-12-31T18:45:25.761Z,19.3
2022-12-31T18:50:28.054Z,19.3
2022-12-31T18:55:30.461Z,19.3
2022-12-31T19:00:32.659Z,19.2
2022-12-31T19:05:34.768Z,19.2
2022-12-31T19:10:37.130Z,19.2
2022-12-31T19:15:39.310Z,19.2
2022-12-31T19:20:41.559Z,19.2
2022-12-31T19:25:43.881Z,19.2
2022-12-31T19:30:46.113Z,19.1
2022-12-31T19:35:48.334Z,19.1
2022-12-31T19:40:50.626Z,19.1
2022-12-31T19:45:52.904Z,19.1
2022-12-31T19:50:55.158Z,19.1
2022-12-31T19:55:57.473Z,19.1
2022-12-31T20:01:02.599Z,19.1
2022-12-31T20:06:01.843Z,19.1
2022-12-31T20:11:04.173Z,19.1
2022-12-31T20:16:06.568Z,19.1
2022-12-31T20:21:08.900Z,19.1
2022-12-31T20:26:11.148Z,19.1
2022-12-31T20:31:13.569Z,19.1
2022-12-31T20:36:15.655Z,19
2022-12-31T20:41:17.985Z,19
2022-12-31T20:46:20.244Z,19
2022-12-31T20:51:22.460Z,19
2022-12-31T20:56:24.659Z,19
2022-12-31T21:01:36.270Z,19
2022-12-31T21:06:29.006Z,19
2022-12-31T21:11:31.345Z,18.9
2022-12-31T21:16:33.611Z,18.9
2022-12-31T21:21:35.739Z,18.9
2022-12-31T21:26:37.886Z,18.9
2022-12-31T21:31:40.208Z,18.9
2022-12-31T21:36:42.347Z,18.9
2022-12-31T21:41:44.479Z,18.9
2022-12-31T21:47:01.169Z,18.8
2022-12-31T21:51:48.942Z,18.8
2022-12-31T21:56:51.098Z,18.8
2022-12-31T22:01:53.303Z,18.8
2022-12-31T22:06:55.396Z,18.8
2022-12-31T22:11:57.541Z,18.7
2022-12-31T22:16:59.686Z,18.7
2022-12-31T22:22:01.802Z,18.7
2022-12-31T22:27:27.965Z,18.7
2022-12-31T22:32:06.112Z,18.7
2022-12-31T22:37:27.404Z,18.7
2022-12-31T22:42:10.515Z,18.7
2022-12-31T22:47:12.683Z,18.7
2022-12-31T22:52:14.805Z,18.7
2022-12-31T22:57:20.125Z,18.7
2022-12-31T23:02:19.107Z,18.7
2022-12-31T23:07:21.326Z,18.7
2022-12-31T23:12:23.488Z,18.7
2022-12-31T23:17:29.288Z,18.7
2022-12-31T23:22:27.786Z,18.7
2022-12-31T23:27:29.936Z,18.7
2022-12-31T23:32:32.243Z,18.7
2022-12-31T23:37:34.365Z,18.7
2022-12-31T23:42:36.494Z,18.7
2022-12-31T23:47:38.670Z,18.7
2022-12-31T23:52:40.793Z,18.7
2022-12-31T23:57:42.998Z,18.7
